Time;durP1;ratioP1;P1;durP2;ratioP2;P2;SDS_P1;SDS_P2;PMS_P1;PMS_P2;Temp;Humidity;BMP_temperature;BMP_pressure;BME280_temperature;BME280_humidity;BME280_pressure;Samples;Min_cycle;Max_cycle;Signal;HPM_P1;HPM_P2
2022/12/24 00:00:39;;;;;;;89.80;40.43;;;;;;;-1.01;73.99;100809.25;1851056;77;27548;-63
2022/12/24 00:03:07;;;;;;;90.97;40.28;;;;;;;-0.98;74.36;100810.43;1839139;76;25717;-63
2022/12/24 00:05:37;;;;;;;90.12;39.75;;;;;;;-0.95;74.50;100805.05;1822725;78;25772;-63
2022/12/24 00:08:04;;;;;;;89.85;39.08;;;;;;;-0.92;74.62;100804.05;1829171;77;25709;-63
2022/12/24 00:10:32;;;;;;;92.15;40.48;;;;;;;-0.91;74.66;100805.77;1822540;78;25681;-63
2022/12/24 00:12:59;;;;;;;90.85;41.70;;;;;;;-0.89;74.72;100802.14;1821455;77;27534;-63
2022/12/24 00:15:25;;;;;;;94.40;42.53;;;;;;;-0.86;74.82;100803.83;1831359;77;25857;-63
2022/12/24 00:17:52;;;;;;;96.50;43.55;;;;;;;-0.88;74.75;100804.34;1828118;77;25657;-63
2022/12/24 00:20:19;;;;;;;86.85;40.15;;;;;;;-0.88;74.83;100799.91;1832682;77;25708;-63
2022/12/24 00:22:46;;;;;;;95.12;42.30;;;;;;;-0.87;74.80;100796.82;1836760;77;25822;-63
2022/12/24 00:25:13;;;;;;;88.62;40.78;;;;;;;-0.86;74.74;100798.55;1835863;77;27443;-63
2022/12/24 00:27:39;;;;;;;86.22;40.40;;;;;;;-0.90;74.61;100792.53;1835473;77;25853;-63
2022/12/24 00:30:08;;;;;;;90.77;40.12;;;;;;;-0.91;74.47;100784.64;1839062;77;25795;-63
2022/12/24 00:32:36;;;;;;;82.47;39.83;;;;;;;-0.90;74.58;100787.69;1842008;77;26186;-63
2022/12/24 00:35:05;;;;;;;86.12;37.83;;;;;;;-0.92;74.55;100773.23;1833136;77;25686;-63
2022/12/24 00:37:32;;;;;;;85.28;38.88;;;;;;;-0.97;74.52;100769.47;1825771;77;27407;-63
2022/12/24 00:39:58;;;;;;;88.78;38.70;;;;;;;-0.99;74.19;100771.30;1822396;77;25787;-62
2022/12/24 00:42:25;;;;;;;78.10;38.10;;;;;;;-1.05;74.38;100766.27;1819660;77;25790;-63
2022/12/24 00:44:52;;;;;;;85.50;36.98;;;;;;;-1.02;74.79;100773.20;1819537;78;25781;-63
2022/12/24 00:47:19;;;;;;;87.00;40.30;;;;;;;-0.99;75.15;100768.66;1820601;77;25433;-63
2022/12/24 00:49:46;;;;;;;91.37;39.48;;;;;;;-0.95;75.11;100772.91;1822303;77;27456;-63
2022/12/24 00:52:13;;;;;;;88.50;38.92;;;;;;;-0.92;75.13;100773.23;1820252;77;25701;-62
2022/12/24 00:54:39;;;;;;;81.82;38.48;;;;;;;-0.90;75.10;100770.08;1832976;77;26186;-63
2022/12/24 00:57:06;;;;;;;91.20;40.65;;;;;;;-0.95;74.79;100767.62;1819846;78;25721;-63
2022/12/24 00:59:33;;;;;;;90.22;39.50;;;;;;;-1.00;74.67;100755.53;1828287;77;26347;-63
2022/12/24 01:02:00;;;;;;;95.03;44.90;;;;;;;-1.05;74.73;100753.07;1819705;78;27522;-63
2022/12/24 01:07:12;;;;;;;75.60;37.05;;;;;;;-1.09;75.02;100767.30;1827549;77;25643;-62
2022/12/24 01:09:39;;;;;;;87.25;40.45;;;;;;;-1.20;75.33;100768.19;1824880;77;25685;-62
2022/12/24 01:12:06;;;;;;;90.97;40.73;;;;;;;-1.27;75.24;100766.27;1816648;77;25770;-63
2022/12/24 01:14:33;;;;;;;91.08;40.88;;;;;;;-1.24;75.50;100768.77;1820885;77;27510;-63
2022/12/24 01:17:00;;;;;;;95.65;41.33;;;;;;;-1.30;75.39;100759.78;1819438;78;25724;-63
2022/12/24 01:19:26;;;;;;;89.35;41.10;;;;;;;-1.40;75.73;100760.61;1819621;77;25690;-62
2022/12/24 01:21:53;;;;;;;94.10;40.35;;;;;;;-1.45;75.61;100767.83;1819227;77;26652;-63
2022/12/24 01:24:21;;;;;;;91.05;39.90;;;;;;;-1.43;75.82;100760.72;1822949;77;25794;-63
2022/12/24 01:26:48;;;;;;;91.53;39.05;;;;;;;-1.41;75.79;100753.61;1822524;77;27471;-63
2022/12/24 01:29:15;;;;;;;92.55;40.08;;;;;;;-1.36;76.03;100757.39;1820502;77;25700;-62
2022/12/24 01:31:41;;;;;;;84.95;37.30;;;;;;;-1.31;76.18;100761.58;1819506;78;25691;-63
2022/12/24 01:34:08;;;;;;;90.55;39.58;;;;;;;-1.28;76.30;100753.98;1809732;77;25732;-63
2022/12/24 01:36:36;;;;;;;84.32;39.15;;;;;;;-1.25;75.97;100749.89;1792763;77;25775;-63
2022/12/24 01:39:03;;;;;;;94.60;41.85;;;;;;;-1.27;75.79;100755.23;1818366;77;26855;-63
2022/12/24 01:44:30;;;;;;;92.62;40.00;;;;;;;-1.29;75.83;100751.80;1836436;77;25705;-63
2022/12/24 01:47:21;;;;;;;92.90;38.78;;;;;;;-1.31;75.73;100753.66;1827810;77;25846;-63
2022/12/24 01:49:52;;;;;;;83.50;37.67;;;;;;;-1.40;75.29;100750.06;1842645;77;25827;-63
2022/12/24 01:52:27;;;;;;;86.15;37.48;;;;;;;-1.45;75.38;100748.04;1841290;77;27505;-63
2022/12/24 01:55:04;;;;;;;84.35;37.65;;;;;;;-1.47;75.49;100743.27;1822206;77;25508;-63
2022/12/24 01:57:42;;;;;;;90.85;40.65;;;;;;;-1.47;75.62;100735.36;1822561;77;25797;-62
2022/12/24 02:00:13;;;;;;;93.12;41.00;;;;;;;-1.48;75.66;100738.47;1820756;77;25705;-63
2022/12/24 02:02:43;;;;;;;86.12;39.58;;;;;;;-1.54;75.67;100730.80;1819488;77;25426;-63
2022/12/24 02:05:15;;;;;;;85.90;36.55;;;;;;;-1.55;75.71;100730.84;1815571;78;27368;-63
2022/12/24 02:07:43;;;;;;;93.85;39.42;;;;;;;-1.58;75.68;100727.88;1824634;77;25769;-63
2022/12/24 02:10:12;;;;;;;80.62;37.28;;;;;;;-1.56;75.71;100724.72;1804698;75;25867;-62
2022/12/24 02:12:41;;;;;;;92.08;39.48;;;;;;;-1.53;75.74;100721.98;1841006;77;25827;-63
2022/12/24 02:15:12;;;;;;;89.20;38.63;;;;;;;-1.51;75.72;100717.47;1838168;77;25788;-63
2022/12/24 02:17:53;;;;;;;87.10;38.38;;;;;;;-1.52;75.49;100718.39;1825384;75;27480;-63
2022/12/24 02:20:40;;;;;;;95.85;41.37;;;;;;;-1.50;75.58;100721.84;1816566;77;26030;-63
2022/12/24 02:23:40;;;;;;;91.32;40.78;;;;;;;-1.49;75.77;100729.31;1818903;77;25765;-63
2022/12/24 02:26:30;;;;;;;94.92;39.38;;;;;;;-1.47;75.96;100726.13;1854565;75;25494;-63
2022/12/24 02:29:20;;;;;;;96.05;39.65;;;;;;;-1.46;75.78;100718.61;1837909;75;25763;-63
2022/12/24 02:32:04;;;;;;;93.07;39.33;;;;;;;-1.53;75.51;100721.09;1826208;77;27497;-63
2022/12/24 02:34:45;;;;;;;85.25;39.45;;;;;;;-1.49;75.84;100726.67;1854815;77;25709;-63
2022/12/24 02:37:22;;;;;;;84.62;38.92;;;;;;;-1.41;76.24;100725.91;1844471;75;25637;-63
2022/12/24 02:40:00;;;;;;;90.90;39.65;;;;;;;-1.38;75.96;100717.84;1851563;75;25739;-64
2022/12/24 02:42:38;;;;;;;92.80;39.42;;;;;;;-1.33;76.00;100705.34;1853680;77;25743;-63
2022/12/24 02:45:25;;;;;;;87.47;38.15;;;;;;;-1.35;75.66;100707.66;1835260;75;27535;-63
2022/12/24 02:47:54;;;;;;;90.67;40.38;;;;;;;-1.38;75.90;100713.89;1840320;75;25741;-63
2022/12/24 02:50:22;;;;;;;86.45;39.50;;;;;;;-1.32;76.12;100714.11;1816391;79;25808;-63
2022/12/24 02:52:49;;;;;;;95.75;41.70;;;;;;;-1.28;76.21;100712.60;1827451;75;25689;-64
2022/12/24 02:55:24;;;;;;;83.03;38.85;;;;;;;-1.30;75.88;100717.08;1843922;77;25803;-63
2022/12/24 02:58:24;;;;;;;95.20;40.80;;;;;;;-1.27;76.06;100723.56;1856395;77;27473;-63
2022/12/24 03:01:17;;;;;;;89.37;39.65;;;;;;;-1.23;76.04;100728.73;1797466;77;25613;-63
2022/12/24 03:04:40;;;;;;;90.38;39.85;;;;;;;-1.17;76.41;100731.11;1857105;75;25830;-63
2022/12/24 03:07:15;;;;;;;89.45;38.23;;;;;;;-1.09;76.37;100738.73;1854816;77;27638;-63
2022/12/24 03:10:18;;;;;;;81.17;35.28;;;;;;;-1.08;76.04;100737.34;1840087;75;25740;-63
2022/12/24 03:12:53;;;;;;;84.52;38.02;;;;;;;-1.11;76.22;100742.30;1837900;77;27450;-63
2022/12/24 03:15:24;;;;;;;89.58;38.35;;;;;;;-1.23;75.94;100739.30;1856910;77;25760;-63
2022/12/24 03:17:56;;;;;;;80.50;37.85;;;;;;;-1.31;76.50;100733.86;1859197;77;25802;-63
2022/12/24 03:20:31;;;;;;;84.75;39.27;;;;;;;-1.39;76.30;100735.92;1856362;77;25629;-63
2022/12/24 03:22:57;;;;;;;88.97;37.98;;;;;;;-1.38;76.58;100730.20;1852664;77;25843;-63
2022/12/24 03:25:26;;;;;;;93.90;41.30;;;;;;;-1.38;77.22;100728.41;1840079;77;27545;-63
2022/12/24 03:27:56;;;;;;;94.10;40.45;;;;;;;-1.41;76.83;100727.23;1822966;77;25797;-64
2022/12/24 03:30:23;;;;;;;91.25;41.98;;;;;;;-1.45;76.83;100736.17;1815815;77;25742;-63
2022/12/24 03:32:50;;;;;;;95.75;41.10;;;;;;;-1.44;77.06;100730.85;1801551;77;26060;-64
2022/12/24 03:35:18;;;;;;;95.83;39.18;;;;;;;-1.39;77.26;100731.11;1824097;77;26188;-64
2022/12/24 03:37:44;;;;;;;90.20;39.73;;;;;;;-1.34;77.38;100723.42;1849040;75;27458;-63
2022/12/24 03:40:13;;;;;;;91.72;40.65;;;;;;;-1.26;77.46;100730.56;1846232;77;25763;-63
2022/12/24 03:42:40;;;;;;;100.53;40.85;;;;;;;-1.19;77.48;100738.23;1838972;77;25859;-63
2022/12/24 03:45:08;;;;;;;87.25;39.13;;;;;;;-1.16;77.28;100734.16;1852048;77;25767;-63
2022/12/24 03:47:35;;;;;;;93.00;41.18;;;;;;;-1.14;77.14;100723.08;1838628;75;25701;-63
2022/12/24 03:50:02;;;;;;;89.65;41.48;;;;;;;-1.14;76.84;100725.25;1828652;77;27705;-63
2022/12/24 03:52:28;;;;;;;86.92;38.45;;;;;;;-1.15;76.97;100718.24;1819578;77;25468;-63
2022/12/24 03:54:55;;;;;;;88.60;41.10;;;;;;;-1.16;76.93;100718.32;1848541;75;26351;-64
2022/12/24 03:57:22;;;;;;;92.57;39.60;;;;;;;-1.16;76.86;100724.92;1856701;77;25495;-63
2022/12/24 03:59:49;;;;;;;92.57;39.92;;;;;;;-1.15;76.84;100726.16;1856558;77;26208;-64
2022/12/24 04:02:16;;;;;;;86.17;40.52;;;;;;;-1.14;76.70;100720.44;1824728;77;27460;-63
2022/12/24 04:04:43;;;;;;;95.05;42.58;;;;;;;-1.15;76.72;100717.40;1847697;77;25851;-63
2022/12/24 04:07:10;;;;;;;93.37;41.37;;;;;;;-1.20;76.37;100724.63;1819892;77;25696;-64
2022/12/24 04:09:38;;;;;;;87.80;42.13;;;;;;;-1.25;76.14;100718.22;1827172;75;25733;-64
2022/12/24 04:12:06;;;;;;;95.50;44.67;;;;;;;-1.27;76.20;100717.44;1855799;77;25755;-63
2022/12/24 04:14:33;;;;;;;100.42;46.25;;;;;;;-1.27;76.22;100713.00;1856673;75;27603;-63
2022/12/24 04:17:00;;;;;;;89.20;41.65;;;;;;;-1.30;75.87;100717.55;1822784;77;25796;-64
2022/12/24 04:19:27;;;;;;;86.50;39.53;;;;;;;-1.35;75.75;100728.30;1817027;77;25645;-63
2022/12/24 04:21:53;;;;;;;88.70;39.33;;;;;;;-1.33;76.00;100726.91;1856318;77;26220;-63
2022/12/24 04:24:21;;;;;;;90.80;39.73;;;;;;;-1.37;75.88;100735.87;1855008;77;25696;-63
2022/12/24 04:26:47;;;;;;;84.37;38.23;;;;;;;-1.41;75.86;100721.95;1823066;77;29676;-63
2022/12/24 04:29:14;;;;;;;81.15;38.80;;;;;;;-1.46;75.86;100724.77;1856403;75;25859;-63
2022/12/24 04:31:43;;;;;;;83.58;38.30;;;;;;;-1.53;75.71;100728.57;1856289;77;25792;-63
2022/12/24 04:34:10;;;;;;;80.05;36.08;;;;;;;-1.60;75.77;100736.30;1824203;77;25568;-63
2022/12/24 04:36:37;;;;;;;75.85;35.75;;;;;;;-1.63;75.78;100741.72;1845125;77;25697;-63
2022/12/24 04:39:04;;;;;;;70.90;35.43;;;;;;;-1.70;75.83;100733.17;1816452;75;27468;-63
2022/12/24 04:41:33;;;;;;;71.25;34.40;;;;;;;-1.81;76.03;100741.50;1856959;75;25482;-63
2022/12/24 04:43:59;;;;;;;75.05;36.03;;;;;;;-1.94;75.78;100749.45;1857437;75;25706;-63
2022/12/24 04:46:31;;;;;;;81.57;36.77;;;;;;;-1.99;75.73;100735.59;1857705;75;25671;-63
2022/12/24 04:48:58;;;;;;;71.42;36.03;;;;;;;-2.08;75.70;100746.00;1856212;75;25745;-63
2022/12/24 04:51:27;;;;;;;68.75;33.70;;;;;;;-2.12;75.97;100741.77;1749256;78;27524;-63
2022/12/24 04:53:56;;;;;;;63.95;30.48;;;;;;;-2.18;75.89;100739.33;1768792;78;25919;-63
2022/12/24 04:56:26;;;;;;;66.60;31.57;;;;;;;-2.27;76.62;100733.48;1775819;79;25869;-63
2022/12/24 04:58:53;;;;;;;66.12;31.37;;;;;;;-2.34;76.81;100745.16;1797827;79;25869;-63
2022/12/24 05:01:23;;;;;;;60.12;31.00;;;;;;;-2.34;76.79;100738.57;1787415;79;25742;-62
2022/12/24 05:03:51;;;;;;;69.07;29.82;;;;;;;-2.32;76.76;100741.14;1777697;78;28465;-64
2022/12/24 05:06:22;;;;;;;63.30;30.77;;;;;;;-2.33;76.84;100739.45;1784827;79;25840;-64
2022/12/24 05:08:49;;;;;;;59.25;28.77;;;;;;;-2.38;77.15;100742.25;1786196;80;25814;-63
2022/12/24 05:11:16;;;;;;;62.62;31.23;;;;;;;-2.48;76.91;100736.89;1785559;80;27645;-63
2022/12/24 05:13:44;;;;;;;62.75;30.70;;;;;;;-2.55;76.87;100731.81;1786747;79;25973;-64
2022/12/24 05:16:13;;;;;;;60.98;30.80;;;;;;;-2.57;76.91;100730.16;1785787;78;27525;-63
2022/12/24 05:18:40;;;;;;;61.92;30.70;;;;;;;-2.62;76.90;100734.73;1784274;80;25525;-64
2022/12/24 05:21:18;;;;;;;65.10;30.05;;;;;;;-2.69;77.12;100738.87;1785413;80;25720;-64
2022/12/24 05:26:37;;;;;;;62.33;31.85;;;;;;;-2.63;77.47;100743.08;1782315;80;26186;-63
2022/12/24 05:29:05;;;;;;;69.40;33.92;;;;;;;-2.63;77.20;100738.27;1786666;79;28384;-63
2022/12/24 05:31:34;;;;;;;64.55;31.15;;;;;;;-2.68;77.09;100735.33;1786402;80;25893;-63
2022/12/24 05:34:02;;;;;;;63.60;30.48;;;;;;;-2.75;76.96;100731.19;1785820;79;25492;-63
2022/12/24 05:36:29;;;;;;;63.48;29.85;;;;;;;-2.75;77.23;100731.66;1786323;79;25754;-63
2022/12/24 05:38:56;;;;;;;58.10;30.57;;;;;;;-2.72;77.36;100732.41;1774875;79;25726;-63
2022/12/24 05:41:24;;;;;;;65.78;31.23;;;;;;;-2.66;77.40;100732.66;1786247;79;28368;-63
2022/12/24 05:43:51;;;;;;;62.78;29.52;;;;;;;-2.58;77.62;100740.28;1785734;79;25840;-63
2022/12/24 05:46:20;;;;;;;57.70;27.10;;;;;;;-2.49;77.68;100733.38;1782749;80;25675;-63
2022/12/24 05:48:48;;;;;;;64.80;31.57;;;;;;;-2.41;77.66;100730.02;1772081;80;25783;-63
2022/12/24 05:51:18;;;;;;;68.57;29.55;;;;;;;-2.31;77.72;100734.96;1766630;80;25665;-63
2022/12/24 05:53:46;;;;;;;62.62;29.50;;;;;;;-2.23;77.69;100725.88;1777993;79;27475;-64
2022/12/24 05:56:18;;;;;;;65.92;29.85;;;;;;;-2.19;77.17;100730.58;1791028;79;26197;-63
2022/12/24 05:58:45;;;;;;;67.55;31.35;;;;;;;-2.15;77.13;100735.28;1783214;80;25740;-63
2022/12/24 06:01:13;;;;;;;70.37;32.25;;;;;;;-2.11;77.04;100740.86;1782761;79;26700;-63
2022/12/24 06:03:40;;;;;;;76.35;35.30;;;;;;;-2.08;77.04;100735.45;1783859;80;25806;-64
2022/12/24 06:06:12;;;;;;;68.55;34.60;;;;;;;-2.07;76.85;100732.78;1780684;80;27478;-64
2022/12/24 06:08:40;;;;;;;63.50;30.40;;;;;;;-2.16;76.32;100739.70;1783065;80;25638;-63
2022/12/24 06:11:11;;;;;;;66.17;30.23;;;;;;;-2.18;76.52;100729.67;1777331;79;25668;-63
2022/12/24 06:13:40;;;;;;;62.98;29.40;;;;;;;-2.27;76.11;100731.31;1761371;78;25818;-62
2022/12/24 06:16:13;;;;;;;57.88;29.80;;;;;;;-2.31;76.32;100731.01;1775056;80;25853;-63
2022/12/24 06:18:41;;;;;;;60.63;29.12;;;;;;;-2.29;76.51;100723.91;1794070;80;28257;-63
2022/12/24 06:21:09;;;;;;;62.38;29.67;;;;;;;-2.28;76.43;100721.22;1779924;80;26003;-64
2022/12/24 06:23:40;;;;;;;55.23;28.83;;;;;;;-2.25;76.51;100722.91;1762011;80;25801;-63
2022/12/24 06:26:14;;;;;;;57.00;28.98;;;;;;;-2.26;76.32;100723.34;1743316;80;25545;-64
2022/12/24 06:28:42;;;;;;;57.93;29.87;;;;;;;-2.26;76.32;100731.25;1793261;78;25661;-64
2022/12/24 06:31:14;;;;;;;57.55;28.67;;;;;;;-2.30;76.08;100724.39;1793247;79;27493;-63
2022/12/24 06:33:42;;;;;;;57.62;27.73;;;;;;;-2.34;76.22;100733.30;1774270;80;25778;-63
2022/12/24 06:36:16;;;;;;;58.08;28.47;;;;;;;-2.28;76.52;100727.80;1816694;78;25698;-63
2022/12/24 06:38:45;;;;;;;53.75;28.65;;;;;;;-2.15;76.89;100729.53;1761680;78;25668;-63
2022/12/24 06:41:13;;;;;;;58.87;30.32;;;;;;;-2.08;76.73;100724.91;1740834;80;26909;-65
2022/12/24 06:43:47;;;;;;;58.90;29.57;;;;;;;-2.05;76.60;100718.22;1782175;78;27487;-63
2022/12/24 06:46:15;;;;;;;53.15;28.77;;;;;;;-1.98;76.76;100714.90;1819694;77;25807;-62
2022/12/24 06:48:43;;;;;;;56.88;29.45;;;;;;;-1.98;76.41;100719.70;1817991;77;25784;-63
2022/12/24 06:51:11;;;;;;;60.12;29.37;;;;;;;-1.98;76.19;100713.11;1818033;78;25765;-64
2022/12/24 06:53:39;;;;;;;59.05;30.80;;;;;;;-1.94;76.58;100716.05;1755401;80;25471;-64
2022/12/24 06:56:10;;;;;;;65.47;28.27;;;;;;;-1.92;76.43;100719.94;1814532;78;27454;-63
2022/12/24 06:58:37;;;;;;;58.92;28.12;;;;;;;-1.95;75.92;100727.51;1818407;78;25752;-63
2022/12/24 07:01:07;;;;;;;56.90;27.82;;;;;;;-1.94;76.48;100723.95;1818854;78;25760;-63
2022/12/24 07:03:34;;;;;;;63.42;30.27;;;;;;;-1.94;76.25;100729.23;1819193;78;25740;-63
2022/12/24 07:06:02;;;;;;;55.63;28.83;;;;;;;-1.91;76.59;100723.82;1810414;78;25820;-62
2022/12/24 07:08:32;;;;;;;54.30;25.15;;;;;;;-1.80;76.68;100728.71;1802077;78;27603;-63
2022/12/24 07:10:59;;;;;;;56.73;26.65;;;;;;;-1.79;76.33;100719.01;1802044;78;25790;-62
2022/12/24 07:13:26;;;;;;;53.02;28.07;;;;;;;-1.73;76.62;100729.31;1788621;80;25708;-63
2022/12/24 07:16:01;;;;;;;56.85;28.10;;;;;;;-1.71;76.83;100722.69;1785873;80;26420;-63
2022/12/24 07:18:29;;;;;;;57.27;29.80;;;;;;;-1.66;76.83;100720.24;1762050;81;25736;-63
2022/12/24 07:20:56;;;;;;;64.35;30.20;;;;;;;-1.58;77.13;100725.23;1763533;80;27416;-64
2022/12/24 07:23:24;;;;;;;61.60;32.28;;;;;;;-1.48;76.94;100729.71;1793202;80;25706;-63
2022/12/24 07:25:51;;;;;;;73.67;32.80;;;;;;;-1.53;76.82;100726.38;1821383;77;25746;-63
2022/12/24 07:28:18;;;;;;;69.58;32.10;;;;;;;-1.46;77.04;100722.13;1783888;80;26158;-63
2022/12/24 07:30:47;;;;;;;75.62;35.25;;;;;;;-1.42;76.99;100717.11;1789040;79;25853;-63
2022/12/24 07:33:14;;;;;;;55.65;27.70;;;;;;;-1.38;77.00;100711.25;1798416;78;28860;-63
2022/12/24 07:35:40;;;;;;;62.98;30.82;;;;;;;-1.21;77.16;100716.34;1799255;78;25860;-63
2022/12/24 07:38:07;;;;;;;66.70;30.75;;;;;;;-1.11;77.24;100701.81;1792551;78;25754;-64
2022/12/24 07:40:35;;;;;;;52.35;27.62;;;;;;;-1.04;77.00;100706.39;1798743;78;25746;-64
2022/12/24 07:43:01;;;;;;;53.45;27.27;;;;;;;-1.04;76.76;100708.59;1789081;78;25764;-64
2022/12/24 07:45:28;;;;;;;51.45;26.62;;;;;;;-1.02;76.64;100701.91;1767748;81;28353;-63
2022/12/24 07:47:55;;;;;;;47.93;24.55;;;;;;;-0.98;76.58;100704.36;1795529;78;25760;-63
2022/12/24 07:50:22;;;;;;;44.70;24.98;;;;;;;-0.89;76.67;100696.98;1798413;79;25712;-63
2022/12/24 07:52:49;;;;;;;58.42;26.37;;;;;;;-0.80;76.71;100703.19;1799867;78;26128;-63
2022/12/24 07:55:16;;;;;;;47.23;26.40;;;;;;;-0.71;76.84;100702.80;1798667;78;25499;-63
2022/12/24 07:57:43;;;;;;;51.85;24.95;;;;;;;-0.64;76.80;100710.02;1792439;78;26752;-63
2022/12/24 08:00:11;;;;;;;47.20;26.33;;;;;;;-0.54;77.01;100707.34;1788480;79;25685;-63
2022/12/24 08:02:41;;;;;;;46.00;25.70;;;;;;;-0.40;76.80;100705.42;1791202;78;25496;-63
2022/12/24 08:05:09;;;;;;;48.13;26.60;;;;;;;-0.30;76.45;100699.73;1767758;81;25863;-63
2022/12/24 08:07:35;;;;;;;49.77;26.90;;;;;;;-0.21;76.45;100701.96;1762050;80;26141;-64
2022/12/24 08:10:03;;;;;;;51.30;27.75;;;;;;;-0.07;76.68;100698.70;1755364;81;27488;-63
2022/12/24 08:12:30;;;;;;;49.58;26.93;;;;;;;0.04;76.42;100699.55;1758084;79;25923;-63
2022/12/24 08:14:57;;;;;;;50.48;26.17;;;;;;;0.22;76.12;100686.80;1762355;79;25659;-64
2022/12/24 08:17:24;;;;;;;54.35;28.07;;;;;;;0.65;75.62;100685.67;1762689;79;26148;-63
2022/12/24 08:19:51;;;;;;;53.35;26.25;;;;;;;1.18;74.92;100679.49;1760198;79;27363;-64
2022/12/24 08:22:18;;;;;;;47.43;25.92;;;;;;;1.62;73.79;100671.48;1739754;81;27530;-63
2022/12/24 08:24:45;;;;;;;48.65;28.62;;;;;;;1.98;72.72;100673.58;1761736;81;25794;-63
2022/12/24 08:27:12;;;;;;;50.60;27.00;;;;;;;2.37;72.10;100661.72;1758494;79;25859;-63
2022/12/24 08:29:38;;;;;;;44.50;25.72;;;;;;;2.81;70.68;100651.68;1766438;79;25736;-63
2022/12/24 08:32:05;;;;;;;48.80;28.57;;;;;;;3.17;70.06;100641.61;1765730;81;25716;-63
2022/12/24 08:34:32;;;;;;;47.55;28.47;;;;;;;3.45;69.73;100638.13;1767547;81;27414;-63
2022/12/24 08:36:59;;;;;;;47.62;27.07;;;;;;;3.81;68.72;100639.95;1764577;79;25734;-64
2022/12/24 08:39:27;;;;;;;54.13;26.50;;;;;;;4.31;69.07;100639.03;1788668;80;25804;-64
2022/12/24 08:41:53;;;;;;;41.53;25.17;;;;;;;4.82;67.08;100638.38;1758987;80;25869;-63
2022/12/24 08:44:21;;;;;;;38.70;23.00;;;;;;;4.83;67.18;100641.89;1759809;81;25730;-63
2022/12/24 08:46:48;;;;;;;40.33;22.35;;;;;;;4.36;66.92;100632.08;1757864;80;28456;-63
2022/12/24 08:49:14;;;;;;;41.88;24.57;;;;;;;3.96;67.06;100623.50;1757629;81;25729;-63
2022/12/24 08:51:42;;;;;;;39.35;24.35;;;;;;;3.73;66.91;100625.79;1788990;80;25794;-65
2022/12/24 08:54:09;;;;;;;46.70;24.92;;;;;;;3.71;67.20;100625.52;1754524;80;25711;-64
2022/12/24 08:56:35;;;;;;;40.67;25.57;;;;;;;4.04;66.93;100629.20;1733421;81;25781;-65
2022/12/24 08:59:02;;;;;;;41.20;25.45;;;;;;;4.11;66.01;100626.13;1750291;80;27487;-65
2022/12/24 09:01:30;;;;;;;40.60;25.37;;;;;;;4.36;65.95;100627.59;1754093;80;26108;-65
2022/12/24 09:03:57;;;;;;;47.70;25.52;;;;;;;4.65;65.88;100624.83;1759004;80;25651;-64
2022/12/24 09:06:24;;;;;;;47.33;26.00;;;;;;;4.56;65.13;100620.11;1761665;80;25778;-64
2022/12/24 09:08:51;;;;;;;50.03;27.52;;;;;;;4.06;65.29;100627.30;1812943;78;25714;-65
2022/12/24 09:11:19;;;;;;;45.15;24.60;;;;;;;3.97;65.77;100626.55;1783635;80;27072;-63
2022/12/24 09:13:46;;;;;;;38.30;23.52;;;;;;;3.86;64.55;100621.88;1818192;77;25813;-63
2022/12/24 09:16:13;;;;;;;41.63;25.17;;;;;;;3.60;65.57;100623.53;1818879;78;25717;-63
2022/12/24 09:18:41;;;;;;;44.98;25.12;;;;;;;3.58;65.84;100628.08;1818228;77;26455;-65
2022/12/24 09:21:13;;;;;;;41.02;25.00;;;;;;;3.83;65.60;100622.09;1818229;78;25716;-64
2022/12/24 09:23:42;;;;;;;43.48;25.68;;;;;;;3.96;65.60;100611.53;1811599;77;27507;-64
2022/12/24 09:26:20;;;;;;;45.38;27.05;;;;;;;4.52;64.98;100609.30;1786535;80;25822;-65
2022/12/24 09:28:48;;;;;;;46.48;27.70;;;;;;;5.34;64.85;100610.45;1777877;78;25811;-64
2022/12/24 09:31:16;;;;;;;45.33;26.90;;;;;;;6.17;62.44;100604.23;1768047;79;26488;-64
2022/12/24 09:33:46;;;;;;;50.40;26.87;;;;;;;5.90;62.14;100607.41;1806837;79;25697;-64
2022/12/24 09:36:14;;;;;;;44.48;26.07;;;;;;;6.41;60.83;100601.55;1780033;80;27493;-64
2022/12/24 09:38:42;;;;;;;45.45;26.65;;;;;;;6.93;61.09;100599.97;1799810;77;25451;-64
2022/12/24 09:41:27;;;;;;;40.67;24.77;;;;;;;7.31;59.72;100595.67;1813244;79;25811;-64
2022/12/24 09:43:59;;;;;;;40.33;25.37;;;;;;;7.74;59.51;100594.59;1772330;80;25567;-64
2022/12/24 09:46:37;;;;;;;36.15;23.00;;;;;;;8.05;57.68;100590.80;1814500;78;26026;-64
2022/12/24 09:49:16;;;;;;;40.73;25.40;;;;;;;7.61;57.67;100595.59;1742599;80;28258;-65
2022/12/24 09:51:50;;;;;;;40.35;24.57;;;;;;;7.11;57.88;100598.56;1788465;79;25861;-65
2022/12/24 09:54:31;;;;;;;37.60;23.55;;;;;;;6.60;57.17;100605.53;1769874;78;25756;-65
2022/12/24 09:57:03;;;;;;;37.67;24.92;;;;;;;6.17;57.78;100605.07;1751778;79;26829;-65
2022/12/24 09:59:43;;;;;;;35.95;23.90;;;;;;;5.94;58.66;100606.70;1778579;78;25748;-65
2022/12/24 10:02:18;;;;;;;36.95;24.63;;;;;;;5.80;58.85;100597.01;1793103;79;56134;-65
2022/12/24 10:04:47;;;;;;;40.80;26.05;;;;;;;5.53;59.64;100597.16;1766659;81;25959;-65
2022/12/24 10:07:53;;;;;;;37.73;24.37;;;;;;;5.83;59.88;100599.47;1768804;79;25967;-65
2022/12/24 10:10:40;;;;;;;36.03;22.40;;;;;;;6.03;60.09;100593.22;1766318;79;25791;-65
2022/12/24 10:13:30;;;;;;;37.28;23.67;;;;;;;5.90;58.92;100590.05;1778979;79;27360;-64
2022/12/24 10:16:17;;;;;;;39.25;23.70;;;;;;;5.54;59.47;100593.05;1791952;79;27470;-64
2022/12/24 10:19:21;;;;;;;42.13;24.27;;;;;;;5.19;60.11;100592.85;1791920;79;26672;-64
2022/12/24 10:22:14;;;;;;;41.60;24.33;;;;;;;4.92;59.25;100598.62;1785484;79;25813;-64
2022/12/24 10:25:15;;;;;;;48.52;26.70;;;;;;;4.43;59.70;100602.75;1785488;79;25738;-64
2022/12/24 10:27:44;;;;;;;46.28;26.42;;;;;;;3.95;61.18;100604.49;1780463;78;25762;-66
2022/12/24 10:30:21;;;;;;;50.73;26.40;;;;;;;3.76;61.76;100593.68;1796838;79;28126;-65
2022/12/24 10:32:51;;;;;;;45.83;25.68;;;;;;;3.56;62.89;100596.27;1790757;78;25837;-65
2022/12/24 10:35:31;;;;;;;52.80;26.95;;;;;;;3.43;63.11;100597.95;1765589;81;25725;-65
2022/12/24 10:37:58;;;;;;;71.57;26.33;;;;;;;3.31;63.81;100598.23;1780187;78;25749;-64
2022/12/24 10:40:39;;;;;;;42.95;23.55;;;;;;;3.15;64.00;100598.31;1779689;78;25797;-64
2022/12/24 10:43:22;;;;;;;45.40;24.20;;;;;;;3.10;64.65;100599.91;1796974;79;29622;-64
2022/12/24 10:46:04;;;;;;;40.90;24.52;;;;;;;2.95;65.02;100604.38;1787263;79;25773;-64
2022/12/24 10:48:48;;;;;;;80.17;25.62;;;;;;;2.97;65.74;100606.92;1796822;79;26216;-64
2022/12/24 10:51:41;;;;;;;41.70;25.45;;;;;;;2.98;65.72;100604.17;1796182;79;25742;-64
2022/12/24 10:54:16;;;;;;;44.27;25.70;;;;;;;2.97;66.18;100609.59;1797451;79;25737;-65
2022/12/24 10:56:49;;;;;;;44.63;25.17;;;;;;;3.09;66.49;100611.48;1770724;79;28384;-64
2022/12/24 10:59:26;;;;;;;45.25;25.45;;;;;;;3.25;66.51;100609.26;1765681;81;34745;-65
2022/12/24 11:01:56;;;;;;;42.73;25.65;;;;;;;3.28;66.37;100614.38;1789591;79;25765;-65
2022/12/24 11:04:28;;;;;;;43.70;27.27;;;;;;;3.36;65.81;100605.45;1797419;79;25706;-64
2022/12/24 11:07:02;;;;;;;45.50;25.40;;;;;;;3.29;65.83;100604.12;1795281;79;25662;-64
2022/12/24 11:09:40;;;;;;;43.90;25.45;;;;;;;3.14;66.08;100600.58;1793655;80;27477;-64
2022/12/24 11:12:33;;;;;;;51.33;27.60;;;;;;;2.98;66.39;100607.31;1769136;78;25818;-63
2022/12/24 11:15:07;;;;;;;45.98;26.52;;;;;;;2.99;66.96;100599.72;1736238;81;25761;-65
2022/12/24 11:17:34;;;;;;;46.02;26.87;;;;;;;3.06;66.99;100598.41;1813053;77;26079;-65
2022/12/24 11:20:02;;;;;;;48.42;26.40;;;;;;;3.12;66.92;100601.17;1850723;75;25626;-65
2022/12/24 11:22:32;;;;;;;49.42;25.75;;;;;;;3.21;66.79;100597.09;1849406;77;27580;-65
2022/12/24 11:25:08;;;;;;;45.43;25.88;;;;;;;3.26;66.64;100597.68;1844246;77;25748;-65
2022/12/24 11:27:43;;;;;;;46.58;28.00;;;;;;;3.24;66.82;100603.56;1829473;77;25744;-62
2022/12/24 11:30:24;;;;;;;52.58;28.62;;;;;;;3.24;67.02;100596.91;1832348;77;25667;-64
2022/12/24 11:33:06;;;;;;;45.52;27.67;;;;;;;3.26;67.19;100599.02;1841993;75;25736;-63
2022/12/24 11:35:40;;;;;;;49.45;28.62;;;;;;;3.24;67.10;100595.58;1829516;77;27474;-64
2022/12/24 11:38:11;;;;;;;52.00;29.95;;;;;;;3.09;67.26;100592.05;1826349;77;25793;-63